| time (UTC) | temp F | wind direction | speed MPH | gust MPH | rain 1hr in | rain 24hr in | rain mn in | humidity % | barometer mb |
| 20260906002537 | 52 | 0 | 8.0 | 11.0 | 0.00 | 0.26 | 0.00 | 96 | 1021.9 |
| 20260906001517 | 52 | 0 | 7.0 | 9.0 | 0.00 | 0.26 | 0.00 | 96 | 1021.8 |
| 20260906000517 | 52 | 0 | 6.0 | 8.0 | 0.00 | 0.26 | 0.00 | 96 | 1021.8 |
| 20260905235517 | 53 | 0 | 7.0 | 9.0 | 0.00 | 0.28 | 0.00 | 96 | 1021.7 |
| 20260905234517 | 53 | 0 | 9.0 | 12.0 | 0.00 | 0.28 | 0.00 | 96 | 1021.5 |
| 20260905233516 | 53 | 0 | 10.0 | 13.0 | 0.00 | 0.28 | 0.00 | 96 | 1021.6 |
| 20260905232536 | 53 | 0 | 9.0 | 12.0 | 0.00 | 0.28 | 0.00 | 96 | 1021.5 |
| 20260905231517 | 53 | 0 | 10.0 | 13.0 | 0.00 | 0.28 | 0.00 | 96 | 1021.4 |
| 20260905230517 | 53 | 0 | 11.0 | 15.0 | 0.00 | 0.28 | 0.00 | 96 | 1021.4 |
| 20260905225557 | 54 | 0 | 10.0 | 13.0 | 0.00 | 0.28 | 0.00 | 96 | 1021.4 |
| 20260905224517 | 54 | 0 | 11.0 | 14.0 | 0.00 | 0.28 | 0.00 | 96 | 1021.5 |
| 20260905223516 | 54 | 0 | 11.0 | 14.0 | 0.00 | 0.28 | 0.00 | 96 | 1021.3 |
| 20260905222516 | 54 | 0 | 11.0 | 14.0 | 0.00 | 0.28 | 0.00 | 96 | 1021.2 |
| 20260905221517 | 54 | 0 | 11.0 | 13.0 | 0.00 | 0.28 | 0.00 | 96 | 1021.1 |
| 20260905220517 | 54 | 0 | 11.0 | 14.0 | 0.00 | 0.28 | 0.00 | 96 | 1021.1 |
| 20260905215517 | 54 | 0 | 9.0 | 12.0 | 0.00 | 0.28 | 0.28 | 96 | 1021.0 |
| 20260905214516 | 54 | 0 | 10.0 | 13.0 | 0.00 | 0.28 | 0.28 | 96 | 1020.9 |
| 20260905213516 | 54 | 0 | 12.0 | 18.0 | 0.00 | 0.28 | 0.28 | 96 | 1020.8 |
| 20260905212516 | 54 | 0 | 11.0 | 15.0 | 0.00 | 0.28 | 0.28 | 96 | 1020.6 |
| 20260905211516 | 54 | 0 | 12.0 | 14.0 | 0.00 | 0.28 | 0.28 | 96 | 1020.5 |
| 20260905210517 | 54 | 0 | 10.0 | 14.0 | 0.00 | 0.28 | 0.28 | 95 | 1020.3 |
| 20260905205517 | 54 | 0 | 11.0 | 15.0 | 0.00 | 0.28 | 0.28 | 95 | 1020.2 |
| 20260905204516 | 54 | 0 | 10.0 | 13.0 | 0.00 | 0.28 | 0.28 | 95 | 1020.1 |
| 20260905203516 | 55 | 0 | 10.0 | 13.0 | 0.00 | 0.28 | 0.28 | 95 | 1020.0 |
| 20260905202517 | 55 | 0 | 11.0 | 14.0 | 0.00 | 0.28 | 0.28 | 95 | 1019.9 |
| 20260905201536 | 55 | 0 | 12.0 | 15.0 | 0.00 | 0.28 | 0.28 | 94 | 1019.8 |
| 20260905200516 | 55 | 0 | 12.0 | 15.0 | 0.00 | 0.28 | 0.28 | 94 | 1019.7 |
| 20260905195516 | 55 | 0 | 11.0 | 15.0 | 0.00 | 0.30 | 0.28 | 94 | 1019.7 |
| 20260905194516 | 55 | 0 | 11.0 | 15.0 | 0.00 | 0.30 | 0.28 | 93 | 1019.7 |
| 20260905193516 | 55 | 0 | 13.0 | 17.0 | 0.00 | 0.30 | 0.28 | 93 | 1019.4 |
| 20260905192516 | 55 | 0 | 11.0 | 15.0 | 0.00 | 0.30 | 0.28 | 93 | 1019.3 |
| 20260905191558 | 56 | 0 | 12.0 | 18.0 | 0.00 | 0.30 | 0.28 | 93 | 1019.3 |
| 20260905190538 | 56 | 0 | 14.0 | 19.0 | 0.00 | 0.30 | 0.28 | 93 | 1019.2 |
| 20260905185518 | 56 | 0 | 13.0 | 19.0 | 0.00 | 0.30 | 0.28 | 92 | 1019.2 |
| 20260905184516 | 56 | 0 | 11.0 | 14.0 | 0.00 | 0.30 | 0.28 | 92 | 1019.1 |
| 20260905183518 | 56 | 0 | 12.0 | 18.0 | 0.00 | 0.30 | 0.28 | 92 | 1018.9 |
| 20260905182518 | 56 | 0 | 11.0 | 15.0 | 0.00 | 0.30 | 0.28 | 92 | 1018.8 |
| 20260905181518 | 57 | 0 | 13.0 | 17.0 | 0.00 | 0.30 | 0.28 | 91 | 1018.6 |
| 20260905180518 | 57 | 0 | 13.0 | 18.0 | 0.00 | 0.30 | 0.28 | 91 | 1018.5 |
| 20260905175519 | 57 | 0 | 13.0 | 19.0 | 0.00 | 0.30 | 0.28 | 91 | 1018.3 |
| 20260905174518 | 57 | 0 | 11.0 | 14.0 | 0.00 | 0.30 | 0.28 | 91 | 1018.2 |
| 20260905173518 | 58 | 0 | 12.0 | 20.0 | 0.00 | 0.30 | 0.28 | 90 | 1018.1 |
| 20260905172518 | 58 | 0 | 13.0 | 17.0 | 0.00 | 0.30 | 0.28 | 88 | 1018.1 |
| 20260905171518 | 59 | 0 | 19.0 | 27.0 | 0.00 | 0.30 | 0.28 | 88 | 1017.9 |
| 20260905170518 | 59 | 0 | 17.0 | 24.0 | 0.00 | 0.30 | 0.28 | 90 | 1017.9 |
| 20260905165538 | 60 | 0 | 15.0 | 20.0 | 0.00 | 0.31 | 0.28 | 90 | 1017.7 |
| 20260905164518 | 59 | 0 | 15.0 | 21.0 | 0.00 | 0.31 | 0.28 | 90 | 1017.6 |
| 20260905163538 | 59 | 0 | 19.0 | 24.0 | 0.00 | 0.31 | 0.28 | 89 | 1017.4 |
| 20260905162518 | 59 | 0 | 17.0 | 21.0 | 0.00 | 0.31 | 0.28 | 89 | 1017.1 |
| 20260905161538 | 60 | 0 | 20.0 | 27.0 | 0.00 | 0.31 | 0.28 | 89 | 1017.0 |
| 20260905160518 | 61 | 0 | 22.0 | 31.0 | 0.00 | 0.31 | 0.28 | 89 | 1016.7 |
| 20260905155518 | 60 | 0 | 15.0 | 22.0 | 0.00 | 0.34 | 0.28 | 91 | 1016.5 |
| 20260905154518 | 60 | 0 | 16.0 | 20.0 | 0.06 | 0.34 | 0.28 | 91 | 1016.4 |
| 20260905153518 | 60 | 0 | 20.0 | 26.0 | 0.06 | 0.34 | 0.28 | 92 | 1016.2 |
| 20260905152558 | 60 | 0 | 20.0 | 28.0 | 0.06 | 0.34 | 0.28 | 94 | 1016.3 |
| 20260905151538 | 60 | 0 | 21.0 | 36.0 | 0.06 | 0.34 | 0.28 | 95 | 1016.1 |
| 20260905150538 | 60 | 0 | 15.0 | 19.0 | 0.06 | 0.34 | 0.28 | 94 | 1016.0 |
| 20260905145518 | 61 | 0 | 21.0 | 34.0 | 0.06 | 0.34 | 0.28 | 94 | 1016.0 |
| 20260905144518 | 62 | 0 | 15.0 | 23.0 | 0.00 | 0.28 | 0.22 | 91 | 1015.5 |
| 20260905143518 | 63 | 0 | 15.0 | 19.0 | 0.00 | 0.28 | 0.22 | 92 | 1015.4 |
| 20260905142518 | 61 | 0 | 15.0 | 21.0 | 0.00 | 0.28 | 0.22 | 90 | 1015.3 |
| 20260905141518 | 63 | 0 | 18.0 | 25.0 | 0.00 | 0.28 | 0.22 | 88 | 1015.1 |
| 20260905140538 | 65 | 0 | 20.0 | 23.0 | 0.00 | 0.28 | 0.22 | 89 | 1015.1 |
| 20260905135518 | 64 | 0 | 19.0 | 24.0 | 0.00 | 0.29 | 0.22 | 91 | 1015.0 |
| 20260905134518 | 63 | 0 | 19.0 | 26.0 | 0.00 | 0.29 | 0.22 | 93 | 1015.0 |
| 20260905133518 | 62 | 0 | 19.0 | 31.0 | 0.00 | 0.29 | 0.22 | 93 | 1015.0 |
| 20260905132517 | 62 | 0 | 19.0 | 24.0 | 0.00 | 0.29 | 0.22 | 93 | 1015.0 |
| 20260905131518 | 65 | 0 | 17.0 | 23.0 | 0.00 | 0.29 | 0.22 | 96 | 1014.9 |
| 20260905130517 | 64 | 0 | 15.0 | 23.0 | 0.02 | 0.29 | 0.22 | 97 | 1014.8 |
| 20260905125517 | 63 | 0 | 15.0 | 19.0 | 0.02 | 0.46 | 0.22 | 98 | 1014.8 |
| 20260905124537 | 60 | 0 | 13.0 | 17.0 | 0.10 | 0.46 | 0.22 | 97 | 1014.8 |
| 20260905123518 | 61 | 0 | 12.0 | 18.0 | 0.14 | 0.46 | 0.22 | 98 | 1014.7 |
| 20260905122538 | 59 | 0 | 12.0 | 16.0 | 0.15 | 0.46 | 0.22 | 98 | 1014.7 |
| 20260905121517 | 57 | 0 | 12.0 | 16.0 | 0.20 | 0.46 | 0.22 | 97 | 1014.7 |
| 20260905120517 | 57 | 0 | 15.0 | 19.0 | 0.19 | 0.44 | 0.20 | 96 | 1014.8 |
| 20260905115538 | 57 | 0 | 16.0 | 20.0 | 0.18 | 0.46 | 0.20 | 95 | 1014.7 |
| 20260905114517 | 59 | 0 | 17.0 | 28.0 | 0.10 | 0.39 | 0.12 | 95 | 1014.4 |
| 20260905113517 | 59 | 0 | 12.0 | 17.0 | 0.06 | 0.35 | 0.08 | 94 | 1014.0 |
| 20260905112517 | 59 | 0 | 17.0 | 24.0 | 0.06 | 0.34 | 0.07 | 91 | 1013.6 |
| 20260905111517 | 64 | 0 | 22.0 | 36.0 | 0.01 | 0.29 | 0.02 | 82 | 1014.0 |
| 20260905110517 | 67 | 0 | 21.0 | 30.0 | 0.00 | 0.28 | 0.02 | 78 | 1013.8 |
| 20260905105518 | 69 | 0 | 21.0 | 29.0 | 0.00 | 0.30 | 0.02 | 77 | 1013.7 |
| 20260905104537 | 67 | 0 | 24.0 | 33.0 | 0.00 | 0.30 | 0.02 | 81 | 1013.8 |
| 20260905103537 | 68 | 0 | 19.0 | 26.0 | 0.00 | 0.30 | 0.02 | 81 | 1013.9 |
| 20260905102517 | 68 | 0 | 18.0 | 29.0 | 0.00 | 0.30 | 0.02 | 81 | 1013.8 |
| 20260905101537 | 66 | 0 | 22.0 | 28.0 | 0.00 | 0.30 | 0.02 | 84 | 1013.8 |
| 20260905100517 | 64 | 0 | 24.0 | 34.0 | 0.00 | 0.30 | 0.02 | 84 | 1013.7 |
| 20260905095517 | 65 | 0 | 23.0 | 34.0 | 0.00 | 0.35 | 0.02 | 85 | 1013.7 |
| 20260905094517 | 64 | 0 | 22.0 | 30.0 | 0.00 | 0.35 | 0.02 | 86 | 1013.7 |
| 20260905093537 | 65 | 0 | 22.0 | 31.0 | 0.00 | 0.35 | 0.02 | 87 | 1013.7 |
| 20260905092517 | 65 | 0 | 22.0 | 29.0 | 0.00 | 0.35 | 0.02 | 87 | 1013.6 |
| 20260905091538 | 65 | 0 | 23.0 | 32.0 | 0.00 | 0.35 | 0.02 | 88 | 1013.7 |
| 20260905090557 | 64 | 0 | 19.0 | 29.0 | 0.00 | 0.35 | 0.02 | 88 | 1013.8 |
| 20260905085517 | 63 | 0 | 18.0 | 26.0 | 0.00 | 0.45 | 0.02 | 90 | 1013.6 |
| 20260905084517 | 61 | 0 | 19.0 | 28.0 | 0.00 | 0.45 | 0.02 | 91 | 1013.5 |
| 20260905083517 | 61 | 0 | 20.0 | 28.0 | 0.00 | 0.45 | 0.02 | 91 | 1013.5 |
| 20260905082537 | 61 | 0 | 15.0 | 22.0 | 0.00 | 0.45 | 0.02 | 91 | 1013.4 |
| 20260905081517 | 61 | 0 | 16.0 | 22.0 | 0.00 | 0.45 | 0.02 | 92 | 1013.3 |
| 20260905080517 | 60 | 0 | 15.0 | 22.0 | 0.00 | 0.45 | 0.02 | 92 | 1013.2 |
| 20260905075517 | 60 | 0 | 15.0 | 18.0 | 0.00 | 0.52 | 0.02 | 94 | 1013.1 |
| 20260905074558 | 60 | 0 | 15.0 | 20.0 | 0.00 | 0.52 | 0.02 | 93 | 1013.1 |
| 20260905073517 | 60 | 0 | 18.0 | 25.0 | 0.00 | 0.52 | 0.02 | 93 | 1013.0 |
| 20260905072517 | 60 | 0 | 15.0 | 20.0 | 0.00 | 0.52 | 0.02 | 94 | 1012.9 |
| 20260905071517 | 59 | 0 | 15.0 | 19.0 | 0.00 | 0.52 | 0.02 | 94 | 1012.8 |
| 20260905070517 | 59 | 0 | 14.0 | 22.0 | 0.00 | 0.52 | 0.02 | 94 | 1012.7 |
| 20260905065517 | 59 | 0 | 13.0 | 17.0 | 0.00 | 0.54 | 0.02 | 94 | 1012.5 |
| 20260905064517 | 59 | 0 | 15.0 | 20.0 | 0.00 | 0.54 | 0.02 | 95 | 1012.6 |
| 20260905063537 | 58 | 0 | 14.0 | 20.0 | 0.00 | 0.54 | 0.02 | 95 | 1012.4 |
| 20260905062517 | 58 | 0 | 14.0 | 19.0 | 0.00 | 0.54 | 0.02 | 95 | 1012.5 |
| 20260905061517 | 58 | 0 | 14.0 | 18.0 | 0.00 | 0.54 | 0.02 | 95 | 1012.3 |
| 20260905060517 | 58 | 0 | 13.0 | 18.0 | 0.00 | 0.54 | 0.02 | 95 | 1012.2 |
| 20260905055537 | 58 | 0 | 13.0 | 18.0 | 0.00 | 0.63 | 0.02 | 95 | 1012.1 |
| 20260905054517 | 57 | 0 | 9.0 | 16.0 | 0.00 | 0.63 | 0.02 | 96 | 1012.1 |
| 20260905053537 | 56 | 0 | 10.0 | 15.0 | 0.00 | 0.63 | 0.02 | 96 | 1012.1 |
| 20260905052517 | 56 | 0 | 12.0 | 16.0 | 0.00 | 0.63 | 0.02 | 96 | 1012.0 |
| 20260905051516 | 56 | 0 | 13.0 | 18.0 | 0.00 | 0.63 | 0.02 | 96 | 1012.0 |
| 20260905050517 | 56 | 0 | 13.0 | 16.0 | 0.00 | 0.63 | 0.02 | 96 | 1012.0 |
| 20260905045536 | 56 | 0 | 12.0 | 16.0 | 0.00 | 0.64 | 0.02 | 96 | 1012.0 |
| 20260905044517 | 55 | 0 | 9.0 | 14.0 | 0.00 | 0.64 | 0.02 | 96 | 1011.9 |
| 20260905043516 | 55 | 0 | 8.0 | 14.0 | 0.00 | 0.64 | 0.02 | 96 | 1011.9 |
| 20260905042516 | 55 | 0 | 8.0 | 13.0 | 0.00 | 0.64 | 0.02 | 96 | 1011.8 |
| 20260905041516 | 55 | 0 | 9.0 | 13.0 | 0.00 | 0.64 | 0.02 | 96 | 1011.7 |
| 20260905040517 | 55 | 0 | 11.0 | 14.0 | 0.00 | 0.64 | 0.02 | 96 | 1011.6 |
| 20260905035517 | 55 | 0 | 12.0 | 18.0 | 0.00 | 0.64 | 0.02 | 96 | 1011.5 |
| 20260905034517 | 55 | 0 | 11.0 | 17.0 | 0.00 | 0.64 | 0.02 | 97 | 1011.5 |
| 20260905033516 | 55 | 0 | 12.0 | 16.0 | 0.00 | 0.64 | 0.02 | 97 | 1011.4 |
| 20260905032517 | 55 | 0 | 12.0 | 17.0 | 0.00 | 0.64 | 0.02 | 97 | 1011.3 |
| 20260905031516 | 55 | 0 | 12.0 | 17.0 | 0.00 | 0.64 | 0.02 | 97 | 1011.3 |
| 20260905030517 | 55 | 0 | 10.0 | 14.0 | 0.00 | 0.64 | 0.02 | 97 | 1011.2 |
| 20260905025516 | 55 | 0 | 9.0 | 12.0 | 0.00 | 0.64 | 0.02 | 97 | 1011.1 |
| 20260905024517 | 55 | 0 | 12.0 | 16.0 | 0.00 | 0.64 | 0.02 | 96 | 1011.1 |
| 20260905023516 | 55 | 0 | 10.0 | 14.0 | 0.00 | 0.64 | 0.02 | 97 | 1011.1 |
| 20260905022516 | 56 | 0 | 12.0 | 14.0 | 0.00 | 0.64 | 0.02 | 96 | 1011.1 |
| 20260905021516 | 56 | 0 | 12.0 | 15.0 | 0.00 | 0.64 | 0.02 | 97 | 1010.9 |
| 20260905020518 | 56 | 0 | 12.0 | 15.0 | 0.00 | 0.64 | 0.02 | 97 | 1010.8 |
| 20260905015538 | 56 | 0 | 12.0 | 15.0 | 0.00 | 0.64 | 0.02 | 97 | 1010.7 |
| 20260905014518 | 56 | 0 | 12.0 | 17.0 | 0.00 | 0.64 | 0.02 | 97 | 1010.5 |
| 20260905013538 | 56 | 0 | 9.0 | 14.0 | 0.00 | 0.64 | 0.02 | 97 | 1010.5 |
| 20260905012518 | 56 | 0 | 9.0 | 13.0 | 0.00 | 0.64 | 0.02 | 97 | 1010.5 |
| 20260905011518 | 56 | 0 | 7.0 | 10.0 | 0.00 | 0.64 | 0.02 | 97 | 1010.4 |
| 20260905010518 | 56 | 0 | 9.0 | 12.0 | 0.00 | 0.64 | 0.02 | 97 | 1010.3 |
| 20260905005518 | 56 | 0 | 10.0 | 13.0 | 0.00 | 0.64 | 0.02 | 97 | 1010.3 |
| 20260905004518 | 56 | 0 | 9.0 | 14.0 | 0.00 | 0.64 | 0.02 | 97 | 1010.3 |
| 20260905003516 | 57 | 0 | 11.0 | 14.0 | 0.00 | 0.64 | 0.02 | 96 | 1010.2 |